createdAt,value
2023-04-27T00:00:30.254Z,99.99
2023-04-27T00:15:30.435Z,99.99
2023-04-27T00:30:30.844Z,99.99
2023-04-27T00:45:31.059Z,99.99
2023-04-27T01:00:31.215Z,99.99
2023-04-27T01:15:31.525Z,99.99
2023-04-27T01:30:31.878Z,99.99
2023-04-27T01:45:32.456Z,99.99
2023-04-27T02:00:33.141Z,99.99
2023-04-27T02:15:33.292Z,99.99
2023-04-27T02:30:33.584Z,99.99
2023-04-27T02:45:33.795Z,99.99
2023-04-27T03:00:34.268Z,99.99
2023-04-27T03:15:35.397Z,99.99
2023-04-27T03:30:35.813Z,99.99
2023-04-27T03:45:35.916Z,99.99
2023-04-27T04:00:35.919Z,99.99
2023-04-27T04:15:36.284Z,99.99
2023-04-27T04:30:36.660Z,99.99
2023-04-27T04:45:36.770Z,99.99
2023-04-27T05:00:37.499Z,99.99
2023-04-27T05:15:37.672Z,99.99
2023-04-27T05:30:37.800Z,97.34
2023-04-27T05:45:38.062Z,91.85
2023-04-27T06:00:38.491Z,84.84
2023-04-27T06:15:38.685Z,79.11
2023-04-27T06:30:40.228Z,75.45
2023-04-27T06:45:40.349Z,71.33
2023-04-27T07:00:40.940Z,70.92
2023-04-27T07:15:40.662Z,68.71
2023-04-27T07:30:41.731Z,66.71
2023-04-27T07:45:42.078Z,62.35
2023-04-27T08:00:42.037Z,60.49
2023-04-27T08:15:42.244Z,60.66
2023-04-27T08:30:42.660Z,60.52
2023-04-27T08:45:42.838Z,62.55
2023-04-27T09:00:43.099Z,64.23
2023-04-27T09:15:43.186Z,59.12
2023-04-27T09:30:43.486Z,60.64
2023-04-27T09:45:44.984Z,58.45
2023-04-27T10:00:44.675Z,57.78
2023-04-27T10:15:44.795Z,56.65
2023-04-27T10:30:44.995Z,60.85
2023-04-27T10:45:45.298Z,59.59
2023-04-27T11:00:45.529Z,57.90
2023-04-27T11:15:45.476Z,53.67
2023-04-27T11:30:45.553Z,55.35
2023-04-27T11:45:45.994Z,56.60
2023-04-27T12:00:45.873Z,56.16
2023-04-27T12:15:46.499Z,55.86
2023-04-27T12:30:48.112Z,54.97
2023-04-27T12:45:48.158Z,54.13
2023-04-27T13:00:49.835Z,57.26
2023-04-27T13:15:50.048Z,50.81
2023-04-27T13:30:50.447Z,51.49
2023-04-27T13:45:50.544Z,51.12
2023-04-27T14:00:50.731Z,48.10
2023-04-27T14:15:50.922Z,44.92
2023-04-27T14:30:50.938Z,47.53
2023-04-27T14:45:55.671Z,40.80
2023-04-27T15:00:56.753Z,38.43
2023-04-27T15:15:57.502Z,39.80
2023-04-27T15:30:57.713Z,38.83
2023-04-27T15:45:57.981Z,38.09
2023-04-27T16:00:58.547Z,39.70
2023-04-27T16:15:58.598Z,43.08
2023-04-27T16:30:59.076Z,43.43
2023-04-27T16:45:59.147Z,46.72
2023-04-27T17:00:59.625Z,50.03
2023-04-27T17:15:59.912Z,52.78
2023-04-27T17:31:00.356Z,54.59
2023-04-27T17:46:00.370Z,55.18
2023-04-27T18:01:00.855Z,58.23
2023-04-27T18:16:01.129Z,62.65
2023-04-27T18:31:02.461Z,68.32
2023-04-27T18:46:02.506Z,71.13
2023-04-27T19:01:02.864Z,74.26
2023-04-27T19:16:02.773Z,79.22
2023-04-27T19:31:04.161Z,88.65
2023-04-27T19:46:04.461Z,93.35
2023-04-27T20:01:04.334Z,95.70
2023-04-27T20:16:04.545Z,96.51
2023-04-27T20:31:05.155Z,96.03
2023-04-27T20:46:05.099Z,99.55
2023-04-27T21:01:05.473Z,99.99
2023-04-27T21:16:05.745Z,99.99
2023-04-27T21:31:06.095Z,99.99
2023-04-27T21:46:06.507Z,99.99
2023-04-27T22:01:06.939Z,99.99
2023-04-27T22:16:07.384Z,99.85
2023-04-27T22:31:07.720Z,99.99
2023-04-27T22:46:07.887Z,97.97
2023-04-27T23:01:08.549Z,98.01
2023-04-27T23:16:08.433Z,96.59
2023-04-27T23:31:08.564Z,94.71
2023-04-27T23:46:09.219Z,95.95
